createdAt,value
2018-12-14T00:01:02.791Z,15.10
2018-12-14T00:03:30.368Z,15.47
2018-12-14T00:05:58.059Z,16.40
2018-12-14T00:08:25.648Z,16.70
2018-12-14T00:10:53.222Z,15.70
2018-12-14T00:13:21.057Z,16.67
2018-12-14T00:15:48.703Z,14.57
2018-12-14T00:18:16.292Z,15.50
2018-12-14T00:20:43.946Z,15.23
2018-12-14T00:23:11.522Z,15.60
2018-12-14T00:25:39.101Z,15.40
2018-12-14T00:28:06.810Z,17.80
2018-12-14T00:30:34.385Z,16.67
2018-12-14T00:33:01.988Z,16.20
2018-12-14T00:35:29.654Z,18.67
2018-12-14T00:37:57.238Z,19.47
2018-12-14T00:40:24.809Z,17.23
2018-12-14T00:42:52.434Z,18.33
2018-12-14T00:45:20.013Z,17.17
2018-12-14T00:47:47.585Z,18.37
2018-12-14T00:50:15.364Z,19.27
2018-12-14T00:52:42.948Z,21.07
2018-12-14T00:55:10.641Z,17.83
2018-12-14T00:57:38.436Z,19.53
2018-12-14T01:00:06.330Z,19.23
2018-12-14T01:02:33.913Z,19.23
2018-12-14T01:05:01.833Z,17.97
2018-12-14T01:07:29.408Z,21.63
2018-12-14T01:09:56.998Z,24.47
2018-12-14T01:12:24.722Z,23.67
2018-12-14T01:14:52.318Z,23.37
2018-12-14T01:17:19.885Z,21.07
2018-12-14T01:19:47.706Z,22.13
2018-12-14T01:22:15.318Z,19.87
2018-12-14T01:24:42.888Z,22.83
2018-12-14T01:27:10.688Z,24.47
2018-12-14T01:29:38.321Z,24.27
2018-12-14T01:32:05.866Z,28.30
2018-12-14T01:34:33.512Z,32.57
2018-12-14T01:37:01.102Z,35.80
2018-12-14T01:39:28.675Z,34.27
2018-12-14T01:41:56.450Z,28.80
2018-12-14T01:44:24.042Z,25.90
2018-12-14T01:46:51.608Z,26.67
2018-12-14T01:49:19.263Z,26.70
2018-12-14T01:51:46.853Z,31.97
2018-12-14T01:54:14.429Z,29.23
2018-12-14T01:56:42.037Z,28.33
2018-12-14T01:59:09.644Z,25.67
2018-12-14T02:01:37.220Z,24.20
2018-12-14T02:04:04.859Z,20.40
2018-12-14T02:06:32.429Z,20.30
2018-12-14T02:08:59.993Z,16.93
2018-12-14T02:11:27.637Z,16.93
2018-12-14T02:13:55.217Z,17.57
2018-12-14T02:16:23.608Z,21.97
2018-12-14T02:18:51.213Z,16.97
2018-12-14T02:21:18.795Z,11.00
2018-12-14T02:23:46.357Z,9.17
2018-12-14T02:26:13.977Z,11.40
2018-12-14T02:28:41.552Z,10.87
2018-12-14T02:31:09.130Z,10.10
2018-12-14T02:33:36.945Z,13.03
2018-12-14T02:36:04.522Z,9.77
2018-12-14T02:38:32.106Z,8.70
2018-12-14T02:40:59.838Z,7.77
2018-12-14T02:43:27.465Z,9.27
2018-12-14T02:45:55.022Z,12.97
2018-12-14T02:48:22.805Z,12.27
2018-12-14T02:50:50.364Z,16.13
2018-12-14T02:53:17.921Z,21.53
2018-12-14T02:55:45.523Z,23.97
2018-12-14T02:58:13.085Z,21.27
2018-12-14T03:00:40.667Z,24.77
2018-12-14T03:03:08.296Z,22.93
2018-12-14T03:05:35.893Z,24.80
2018-12-14T03:08:03.468Z,17.43
2018-12-14T03:10:31.274Z,21.17
2018-12-14T03:12:58.843Z,24.03
2018-12-14T03:15:26.425Z,16.67
2018-12-14T03:17:54.276Z,14.23
2018-12-14T03:20:21.848Z,23.93
2018-12-14T03:22:49.441Z,25.20
2018-12-14T03:25:17.221Z,13.33
2018-12-14T03:27:44.788Z,12.17
2018-12-14T03:30:12.398Z,14.80
2018-12-14T03:32:40.203Z,15.50
2018-12-14T03:35:07.870Z,14.70
2018-12-14T03:37:35.453Z,14.57
2018-12-14T03:40:03.125Z,12.80
2018-12-14T03:42:34.192Z,13.77
2018-12-14T03:44:58.343Z,14.07
2018-12-14T03:47:26.276Z,14.10
2018-12-14T03:49:53.840Z,15.23
2018-12-14T03:52:21.400Z,13.37
2018-12-14T03:54:49.369Z,13.07
2018-12-14T03:57:16.950Z,12.27
2018-12-14T03:59:44.525Z,12.37
2018-12-14T04:02:12.354Z,13.70
2018-12-14T04:04:39.916Z,16.97
2018-12-14T04:07:07.489Z,16.93
2018-12-14T04:09:35.153Z,16.77
2018-12-14T04:12:02.721Z,16.27
2018-12-14T04:14:30.288Z,14.77
2018-12-14T04:23:24.256Z,16.67
2018-12-14T04:25:51.842Z,17.93
2018-12-14T04:28:19.596Z,17.83
2018-12-14T04:30:47.351Z,17.17
2018-12-14T04:33:14.995Z,18.47
2018-12-14T04:35:42.586Z,19.10
2018-12-14T04:38:10.211Z,22.33
2018-12-14T04:40:37.773Z,22.73
2018-12-14T04:43:05.388Z,22.40
2018-12-14T04:45:33.040Z,26.13
2018-12-14T04:48:00.617Z,29.20
2018-12-14T04:50:28.210Z,33.53
2018-12-14T04:52:56.117Z,40.37
2018-12-14T04:55:23.681Z,56.37
2018-12-14T04:57:51.250Z,78.90
2018-12-14T05:00:18.913Z,73.80
2018-12-14T05:02:46.481Z,70.90
2018-12-14T05:05:14.117Z,66.67
2018-12-14T05:07:41.869Z,54.33
2018-12-14T05:10:09.479Z,53.13
2018-12-14T05:12:37.338Z,48.10
2018-12-14T05:15:05.165Z,50.83
2018-12-14T05:17:32.764Z,43.03
2018-12-14T05:20:00.328Z,42.63
2018-12-14T05:22:28.356Z,40.73
2018-12-14T05:24:55.924Z,40.60
2018-12-14T05:27:23.561Z,44.90
2018-12-14T05:29:51.217Z,51.87
2018-12-14T05:32:18.805Z,46.37
2018-12-14T05:34:46.364Z,56.30
2018-12-14T05:37:14.014Z,58.87
2018-12-14T05:39:41.581Z,68.53
2018-12-14T05:42:09.153Z,65.07
2018-12-14T05:44:36.961Z,165.10
2018-12-14T05:47:04.528Z,64.97
2018-12-14T05:49:32.098Z,31.90
2018-12-14T05:52:00.056Z,22.47
2018-12-14T05:54:27.628Z,20.00
2018-12-14T05:56:55.276Z,18.33
2018-12-14T05:59:23.138Z,17.50
2018-12-14T06:01:50.729Z,17.17
2018-12-14T06:04:18.293Z,16.00
2018-12-14T06:06:46.221Z,15.90
2018-12-14T06:09:14.859Z,14.97
2018-12-14T06:11:41.489Z,15.90
2018-12-14T06:14:09.515Z,15.60
2018-12-14T06:16:37.081Z,15.07
2018-12-14T06:19:04.645Z,14.70
2018-12-14T06:21:32.400Z,14.60
2018-12-14T06:23:59.965Z,14.77
2018-12-14T06:26:27.546Z,14.67
2018-12-14T06:28:55.162Z,43.97
2018-12-14T06:31:22.732Z,31.70
2018-12-14T06:33:50.305Z,33.80
2018-12-14T06:36:18.064Z,28.60
2018-12-14T06:38:45.618Z,35.53
2018-12-14T06:41:13.181Z,41.80
2018-12-14T06:43:41.049Z,31.50
2018-12-14T06:46:08.621Z,33.83
2018-12-14T06:48:36.264Z,36.07
2018-12-14T06:51:03.972Z,39.57
2018-12-14T06:53:31.546Z,41.20
2018-12-14T06:55:59.117Z,43.60
2018-12-14T06:58:26.718Z,48.17
2018-12-14T07:00:54.309Z,34.77
2018-12-14T07:03:21.894Z,40.97
2018-12-14T07:05:49.525Z,44.37
2018-12-14T07:08:17.087Z,31.73
2018-12-14T07:10:44.645Z,33.50
2018-12-14T07:13:12.405Z,31.77
2018-12-14T07:15:39.996Z,28.00
2018-12-14T07:18:07.598Z,22.53
2018-12-14T07:20:35.354Z,19.80
2018-12-14T07:23:02.916Z,18.43
2018-12-14T07:25:30.506Z,17.03
2018-12-14T07:27:58.229Z,21.37
2018-12-14T07:30:25.808Z,21.87
2018-12-14T07:32:53.384Z,22.17
2018-12-14T07:35:21.120Z,21.40
2018-12-14T07:37:48.673Z,22.03
2018-12-14T07:40:16.252Z,21.03
2018-12-14T07:42:44.006Z,20.10
2018-12-14T07:45:11.576Z,22.20
2018-12-14T07:47:39.223Z,21.97
2018-12-14T07:50:06.974Z,24.33
2018-12-14T07:52:34.549Z,22.93
2018-12-14T07:55:02.129Z,22.33
2018-12-14T07:57:29.959Z,21.47
2018-12-14T07:59:57.525Z,21.23
2018-12-14T08:02:25.086Z,24.03
2018-12-14T08:04:53.038Z,22.13
2018-12-14T08:07:20.614Z,20.60
2018-12-14T08:09:48.197Z,19.47
2018-12-14T08:12:16.031Z,19.67
2018-12-14T08:14:43.609Z,20.10
2018-12-14T08:17:11.181Z,20.83
2018-12-14T08:19:38.913Z,20.17
2018-12-14T08:22:06.483Z,20.37
2018-12-14T08:24:34.053Z,20.40
2018-12-14T08:27:01.900Z,22.13
2018-12-14T08:29:29.467Z,25.90
2018-12-14T08:31:57.038Z,24.57
2018-12-14T08:34:24.885Z,23.10
2018-12-14T08:36:52.465Z,24.50
2018-12-14T08:39:20.029Z,32.87
2018-12-14T08:41:47.870Z,25.30
2018-12-14T08:44:15.436Z,25.93
2018-12-14T08:46:43.005Z,41.23
2018-12-14T08:49:10.953Z,41.13
2018-12-14T08:51:38.521Z,39.27
2018-12-14T08:54:06.088Z,38.40
2018-12-14T08:56:34.049Z,39.27
2018-12-14T08:59:01.764Z,42.93
2018-12-14T09:01:29.333Z,43.67
2018-12-14T09:03:57.136Z,41.63
2018-12-14T09:06:24.722Z,43.00
2018-12-14T09:08:52.293Z,41.70
2018-12-14T09:11:19.897Z,37.53
2018-12-14T09:13:47.971Z,38.00
2018-12-14T09:16:15.101Z,38.07
2018-12-14T09:18:43.102Z,37.93
2018-12-14T09:21:10.709Z,35.70
2018-12-14T09:23:38.269Z,33.67
2018-12-14T09:26:05.914Z,38.10
2018-12-14T09:28:33.536Z,40.30
2018-12-14T09:31:01.130Z,37.23
2018-12-14T09:33:29.061Z,40.33
2018-12-14T09:35:56.629Z,38.90
2018-12-14T09:38:24.218Z,38.70
2018-12-14T09:40:51.934Z,37.53
2018-12-14T09:43:19.510Z,38.10
2018-12-14T09:45:47.089Z,36.17
2018-12-14T09:48:14.724Z,33.87
2018-12-14T09:50:42.297Z,32.60
2018-12-14T09:53:09.932Z,35.10
2018-12-14T09:55:37.703Z,31.80
2018-12-14T09:58:05.273Z,34.67
2018-12-14T10:00:32.837Z,36.77
2018-12-14T10:03:00.585Z,30.57
2018-12-14T10:05:28.194Z,31.83
2018-12-14T10:07:55.768Z,31.67
2018-12-14T10:10:23.571Z,34.40
2018-12-14T10:12:51.142Z,34.57
2018-12-14T10:15:18.725Z,31.13
2018-12-14T10:17:46.555Z,32.10
2018-12-14T10:20:14.145Z,32.10
2018-12-14T10:22:41.729Z,36.37
2018-12-14T10:25:09.341Z,37.23
2018-12-14T10:27:36.916Z,36.83
2018-12-14T10:30:04.576Z,36.17
2018-12-14T10:32:32.205Z,35.30
2018-12-14T10:34:59.769Z,33.67
2018-12-14T10:37:27.574Z,30.13
2018-12-14T10:39:55.379Z,35.80
2018-12-14T10:42:22.974Z,37.03
2018-12-14T10:44:50.589Z,33.80
2018-12-14T10:47:18.196Z,34.00
2018-12-14T10:49:45.801Z,30.27
2018-12-14T10:52:13.437Z,27.43
2018-12-14T10:54:41.168Z,29.93
2018-12-14T10:57:08.737Z,30.87
2018-12-14T10:59:36.337Z,27.30
2018-12-14T11:02:04.014Z,28.10
2018-12-14T11:04:31.580Z,28.50
2018-12-14T11:06:59.158Z,27.63
2018-12-14T11:09:26.777Z,32.63
2018-12-14T11:11:54.356Z,30.17
2018-12-14T11:14:21.921Z,26.67
2018-12-14T11:16:49.842Z,26.97
2018-12-14T11:19:17.477Z,26.47
2018-12-14T11:21:45.049Z,25.77
2018-12-14T11:24:12.926Z,22.07
2018-12-14T11:26:40.529Z,19.53
2018-12-14T11:29:08.104Z,18.27
2018-12-14T11:31:36.121Z,17.53
2018-12-14T11:34:03.706Z,18.30
2018-12-14T11:36:31.276Z,19.47
2018-12-14T11:38:58.909Z,17.87
2018-12-14T11:41:26.581Z,19.17
2018-12-14T11:43:54.153Z,19.03
2018-12-14T11:46:21.789Z,19.50
2018-12-14T11:48:49.369Z,19.37
2018-12-14T11:51:16.943Z,20.47
2018-12-14T11:53:44.597Z,19.87
2018-12-14T11:56:12.173Z,19.33
2018-12-14T11:58:39.737Z,19.97
2018-12-14T12:01:07.390Z,19.47
2018-12-14T12:03:34.965Z,22.63
2018-12-14T12:06:02.542Z,21.30
2018-12-14T12:08:30.331Z,20.57
2018-12-14T12:10:57.918Z,78.40
2018-12-14T12:13:25.497Z,24.03
2018-12-14T12:15:53.415Z,19.30
2018-12-14T12:18:21.045Z,21.47
2018-12-14T12:20:48.604Z,20.77
2018-12-14T12:23:16.297Z,24.73
2018-12-14T12:25:43.869Z,18.27
2018-12-14T12:28:11.432Z,22.33
2018-12-14T12:30:39.288Z,20.07
2018-12-14T12:33:06.861Z,18.93
2018-12-14T12:35:34.432Z,19.43
2018-12-14T12:38:02.168Z,20.33
2018-12-14T12:40:29.789Z,21.90
2018-12-14T12:42:57.361Z,19.53
2018-12-14T12:45:25.501Z,17.23
2018-12-14T12:47:53.067Z,18.60
2018-12-14T12:50:20.633Z,17.77
2018-12-14T12:52:48.260Z,18.40
2018-12-14T12:55:15.836Z,18.33
2018-12-14T12:57:43.565Z,17.73
2018-12-14T13:00:11.259Z,18.43
2018-12-14T13:02:38.825Z,18.27
2018-12-14T13:05:06.459Z,18.40
2018-12-14T13:07:34.200Z,18.83
2018-12-14T13:10:01.823Z,18.63
2018-12-14T13:12:29.398Z,19.57
2018-12-14T13:14:56.997Z,19.73
2018-12-14T13:17:24.573Z,19.00
2018-12-14T13:19:52.149Z,19.33
2018-12-14T13:22:19.972Z,20.83
2018-12-14T13:24:47.545Z,19.93
2018-12-14T13:27:20.196Z,19.23
2018-12-14T13:29:43.054Z,20.80
2018-12-14T13:32:10.631Z,18.90
2018-12-14T13:34:38.196Z,20.27
2018-12-14T13:37:06.007Z,20.73
2018-12-14T13:39:33.579Z,22.17
2018-12-14T13:42:01.185Z,23.97
2018-12-14T13:44:28.853Z,22.73
2018-12-14T13:46:56.435Z,24.03
2018-12-14T13:49:24.032Z,24.93
2018-12-14T13:51:51.681Z,23.90
2018-12-14T13:54:19.261Z,23.27
2018-12-14T13:56:46.834Z,24.00
2018-12-14T13:59:14.461Z,24.97
2018-12-14T14:01:42.038Z,24.23
2018-12-14T14:04:09.605Z,22.87
2018-12-14T14:06:37.789Z,24.40
2018-12-14T14:09:05.444Z,24.07
2018-12-14T14:11:33.024Z,24.73
2018-12-14T14:14:00.850Z,24.10
2018-12-14T14:16:28.424Z,23.87
2018-12-14T14:18:55.996Z,24.20
2018-12-14T14:21:23.693Z,25.47
2018-12-14T14:23:51.277Z,26.10
2018-12-14T14:26:18.856Z,27.13
2018-12-14T14:28:46.814Z,26.33
2018-12-14T14:31:14.389Z,26.90
2018-12-14T14:33:41.960Z,26.90
2018-12-14T14:36:09.556Z,27.70
2018-12-14T14:38:37.141Z,28.63
2018-12-14T14:41:04.720Z,27.77
2018-12-14T14:43:32.581Z,27.70
2018-12-14T14:46:00.148Z,28.20
2018-12-14T14:48:27.716Z,29.03
2018-12-14T14:50:55.467Z,30.17
2018-12-14T14:53:23.038Z,30.63
2018-12-14T14:55:50.616Z,29.53
2018-12-14T14:58:18.253Z,31.23
2018-12-14T15:00:45.837Z,31.10
2018-12-14T15:03:13.446Z,31.17
2018-12-14T15:05:41.184Z,32.70
2018-12-14T15:08:08.767Z,32.67
2018-12-14T15:10:36.346Z,34.33
2018-12-14T15:13:04.074Z,35.00
2018-12-14T15:15:31.644Z,35.13
2018-12-14T15:17:59.243Z,38.07
2018-12-14T15:20:27.002Z,39.07
2018-12-14T15:22:54.565Z,38.00
2018-12-14T15:25:22.156Z,40.03
2018-12-14T15:27:49.989Z,39.73
2018-12-14T15:30:17.585Z,39.40
2018-12-14T15:32:45.153Z,38.53
2018-12-14T15:35:12.974Z,38.53
2018-12-14T15:37:40.565Z,41.73
2018-12-14T15:40:08.216Z,70.07
2018-12-14T15:42:35.957Z,99.80
2018-12-14T15:45:03.626Z,107.10
2018-12-14T15:47:31.201Z,98.93
2018-12-14T15:49:59.032Z,66.27
2018-12-14T15:52:27.991Z,94.90
2018-12-14T15:54:54.235Z,124.33
2018-12-14T15:57:21.878Z,105.40
2018-12-14T15:59:49.477Z,95.20
2018-12-14T16:02:17.064Z,71.80
2018-12-14T16:04:44.917Z,67.87
2018-12-14T16:07:12.512Z,68.83
2018-12-14T16:09:40.109Z,77.33
2018-12-14T16:12:07.968Z,80.07
2018-12-14T16:14:35.541Z,76.27
2018-12-14T16:17:03.355Z,83.97
2018-12-14T16:19:30.993Z,67.47
2018-12-14T16:21:59.497Z,88.10
2018-12-14T16:24:27.098Z,113.17
2018-12-14T16:26:55.039Z,123.67
2018-12-14T16:29:22.621Z,105.03
2018-12-14T16:31:50.194Z,98.77
2018-12-14T16:34:17.948Z,89.87
2018-12-14T16:36:45.536Z,95.67
2018-12-14T16:39:13.128Z,104.83
2018-12-14T16:41:41.000Z,107.20
2018-12-14T16:44:08.600Z,107.17
2018-12-14T16:46:37.892Z,86.50
2018-12-14T16:49:06.444Z,92.27
2018-12-14T16:51:34.061Z,92.03
2018-12-14T16:54:02.616Z,94.27
2018-12-14T16:56:30.899Z,97.17
2018-12-14T16:58:58.565Z,82.10
2018-12-14T17:01:27.078Z,78.00
2018-12-14T17:03:54.782Z,61.93
2018-12-14T17:06:22.356Z,74.07
2018-12-14T17:08:49.945Z,70.63
2018-12-14T17:11:17.812Z,84.30
2018-12-14T17:13:45.416Z,70.70
2018-12-14T17:16:13.013Z,71.47
2018-12-14T17:18:40.874Z,75.10
2018-12-14T17:21:09.667Z,80.20
2018-12-14T17:23:36.161Z,57.37
2018-12-14T17:26:04.118Z,64.73
2018-12-14T17:28:31.716Z,61.23
2018-12-14T17:30:59.873Z,69.03
2018-12-14T17:33:27.802Z,111.20
2018-12-14T17:35:55.780Z,106.50
2018-12-14T17:38:24.169Z,113.80
2018-12-14T17:40:51.926Z,90.40
2018-12-14T17:43:20.282Z,95.40
2018-12-14T17:45:47.892Z,93.63
2018-12-14T17:48:15.799Z,89.80
2018-12-14T17:50:43.388Z,84.33
2018-12-14T17:53:10.974Z,57.80
2018-12-14T17:55:40.413Z,73.90
2018-12-14T17:58:08.009Z,69.40
2018-12-14T18:00:35.608Z,61.90
2018-12-14T18:03:04.306Z,65.10
2018-12-14T18:05:31.892Z,60.73
2018-12-14T18:07:59.508Z,62.70
2018-12-14T18:10:27.266Z,63.67
2018-12-14T18:12:54.869Z,64.40
2018-12-14T18:15:28.639Z,65.37
2018-12-14T18:17:57.194Z,69.47
2018-12-14T18:20:34.567Z,69.80
2018-12-14T18:23:02.393Z,86.97
2018-12-14T18:25:29.813Z,86.97
2018-12-14T18:27:57.804Z,95.63
2018-12-14T18:30:25.393Z,78.40
2018-12-14T18:32:56.040Z,84.60
2018-12-14T18:35:23.961Z,98.73
2018-12-14T18:37:51.561Z,88.97
2018-12-14T18:40:19.698Z,69.03
2018-12-14T18:42:48.294Z,73.00
2018-12-14T18:45:15.888Z,63.97
2018-12-14T18:47:43.496Z,60.23
2018-12-14T18:50:11.589Z,63.47
2018-12-14T18:52:39.195Z,64.87
2018-12-14T18:55:06.829Z,54.90
2018-12-14T18:57:34.675Z,56.20
2018-12-14T19:00:02.299Z,57.03
2018-12-14T19:02:29.875Z,89.33
2018-12-14T19:04:57.643Z,61.47
2018-12-14T19:07:25.228Z,61.17
2018-12-14T19:09:52.832Z,58.83
2018-12-14T19:12:20.697Z,58.10
2018-12-14T19:14:48.289Z,65.03
2018-12-14T19:17:15.877Z,51.53
2018-12-14T19:19:43.714Z,64.20
2018-12-14T19:22:11.322Z,65.00
2018-12-14T19:24:38.904Z,73.80
2018-12-14T19:27:06.550Z,66.00
2018-12-14T19:29:34.145Z,59.83
2018-12-14T19:32:01.727Z,64.50
2018-12-14T19:34:31.544Z,63.57
2018-12-14T19:36:57.324Z,59.40
2018-12-14T19:39:24.937Z,58.20
2018-12-14T19:41:52.745Z,66.57
2018-12-14T19:44:20.349Z,70.00
2018-12-14T19:46:47.924Z,66.60
2018-12-14T19:49:15.940Z,64.03
2018-12-14T19:51:43.574Z,56.43
2018-12-14T19:54:11.162Z,61.73
2018-12-14T20:02:44.193Z,59.63
2018-12-14T20:05:17.039Z,58.67
2018-12-14T20:07:44.826Z,61.77
2018-12-14T20:10:12.426Z,54.00
2018-12-14T20:12:40.010Z,59.87
2018-12-14T20:15:08.104Z,77.63
2018-12-14T20:17:35.685Z,62.80
2018-12-14T20:20:03.332Z,65.77
2018-12-14T20:22:31.087Z,81.60
2018-12-14T20:24:58.661Z,58.57
2018-12-14T20:27:26.234Z,58.40
2018-12-14T20:29:54.075Z,49.87
2018-12-14T20:32:21.692Z,46.17
2018-12-14T20:34:49.293Z,43.37
2018-12-14T20:37:17.162Z,42.37
2018-12-14T20:39:44.745Z,42.93
2018-12-14T20:42:12.317Z,42.43
2018-12-14T20:44:39.957Z,43.03
2018-12-14T20:47:07.553Z,41.30
2018-12-14T20:49:35.150Z,45.10
2018-12-14T20:52:03.068Z,42.93
2018-12-14T20:54:30.643Z,44.80
2018-12-14T20:56:58.226Z,41.93
2018-12-14T20:59:26.154Z,45.90
2018-12-14T21:01:53.787Z,51.13
2018-12-14T21:04:21.369Z,53.57
2018-12-14T21:06:48.972Z,77.83
2018-12-14T21:09:16.549Z,56.93
2018-12-14T21:11:44.133Z,55.63
2018-12-14T21:14:11.989Z,84.60
2018-12-14T21:16:39.577Z,134.23
2018-12-14T21:19:07.153Z,144.40
2018-12-14T21:21:34.805Z,49.97
2018-12-14T21:24:02.401Z,48.90
2018-12-14T21:26:29.976Z,73.83
2018-12-14T21:28:57.893Z,61.17
2018-12-14T21:31:25.516Z,53.67
2018-12-14T21:33:53.085Z,54.03
2018-12-14T21:36:20.912Z,86.43
2018-12-14T21:38:48.500Z,101.50
2018-12-14T21:41:16.085Z,58.33
2018-12-14T21:43:44.070Z,62.50
2018-12-14T21:46:11.649Z,51.13
2018-12-14T21:48:39.217Z,57.93
2018-12-14T21:51:06.862Z,57.53
2018-12-14T21:53:34.457Z,67.53
2018-12-14T21:56:02.036Z,42.10
2018-12-14T21:58:29.672Z,43.50
2018-12-14T22:00:57.252Z,64.43
2018-12-14T22:03:24.850Z,58.17
2018-12-14T22:05:52.594Z,73.53
2018-12-14T22:08:20.165Z,53.17
2018-12-14T22:10:47.740Z,62.50
2018-12-14T22:13:15.593Z,81.07
2018-12-14T22:15:43.169Z,71.40
2018-12-14T22:18:10.750Z,71.03
2018-12-14T22:20:38.649Z,116.17
2018-12-14T22:23:06.228Z,83.03
2018-12-14T22:25:33.801Z,58.17
2018-12-14T22:28:01.558Z,55.83
2018-12-14T22:30:29.129Z,73.53
2018-12-14T22:32:56.749Z,60.20
2018-12-14T22:35:24.558Z,56.73
2018-12-14T22:37:52.123Z,62.07
2018-12-14T22:40:19.703Z,87.03
2018-12-14T22:42:47.532Z,61.70
2018-12-14T22:45:15.108Z,48.63
2018-12-14T22:47:42.680Z,53.03
2018-12-14T22:50:10.628Z,58.17
2018-12-14T22:52:38.194Z,109.83
2018-12-14T22:55:05.805Z,47.60
2018-12-14T22:57:33.625Z,51.40
2018-12-14T23:00:01.296Z,54.20
2018-12-14T23:02:28.864Z,54.23
2018-12-14T23:04:56.478Z,76.27
2018-12-14T23:07:24.047Z,78.00
2018-12-14T23:09:51.713Z,51.93
2018-12-14T23:12:19.583Z,74.27
2018-12-14T23:14:47.170Z,54.77
2018-12-14T23:17:15.681Z,54.67
2018-12-14T23:19:43.589Z,53.50
2018-12-14T23:22:11.157Z,53.03
2018-12-14T23:24:38.718Z,53.43
2018-12-14T23:27:07.604Z,51.37
2018-12-14T23:29:35.176Z,51.60
2018-12-14T23:32:02.784Z,97.97
2018-12-14T23:34:30.421Z,65.03
2018-12-14T23:36:57.993Z,56.63
2018-12-14T23:39:25.562Z,85.30
2018-12-14T23:41:53.460Z,69.57
2018-12-14T23:44:21.022Z,64.67
2018-12-14T23:46:48.997Z,58.23
2018-12-14T23:49:16.617Z,64.30
2018-12-14T23:51:44.205Z,51.97
2018-12-14T23:54:11.770Z,56.30
2018-12-14T23:56:39.645Z,61.03
2018-12-14T23:59:07.212Z,63.53
